Time;durP1;ratioP1;P1;durP2;ratioP2;P2;SDS_P1;SDS_P2;PMS_P1;PMS_P2;Temp;Humidity;BMP_temperature;BMP_pressure;BME280_temperature;BME280_humidity;BME280_pressure;Samples;Min_cycle;Max_cycle;Signal;HPM_P1;HPM_P2
2024/04/09 00:01:48;;;;;;;13.18;7.13;;;13.70;99.90;;;;;;5488320;26;20238;-79
2024/04/09 00:04:14;;;;;;;12.63;8.25;;;13.70;99.90;;;;;;5486229;26;20238;-79
2024/04/09 00:06:43;;;;;;;14.98;7.85;;;13.60;99.90;;;;;;5479582;26;20702;-78
2024/04/09 00:09:11;;;;;;;11.75;7.82;;;13.60;99.90;;;;;;5489050;26;20246;-79
2024/04/09 00:11:43;;;;;;;11.48;6.90;;;13.60;99.90;;;;;;5476497;26;20242;-79
2024/04/09 00:14:09;;;;;;;10.02;7.32;;;13.50;99.90;;;;;;5475503;26;20244;-79
2024/04/09 00:16:41;;;;;;;13.43;7.03;;;13.40;99.90;;;;;;5484012;26;21570;-79
2024/04/09 00:19:08;;;;;;;10.10;6.90;;;13.40;99.90;;;;;;5486511;26;20234;-79
2024/04/09 00:21:37;;;;;;;10.38;7.10;;;13.40;99.90;;;;;;5492260;26;20269;-79
2024/04/09 00:24:04;;;;;;;18.73;7.93;;;13.40;99.90;;;;;;5461567;26;20244;-79
2024/04/09 00:26:32;;;;;;;8.68;6.85;;;13.40;99.90;;;;;;5485094;26;20771;-79
2024/04/09 00:28:58;;;;;;;12.77;7.60;;;13.30;99.90;;;;;;5474431;26;20290;-79
2024/04/09 00:31:27;;;;;;;13.27;7.20;;;13.40;99.90;;;;;;5486532;26;20306;-78
2024/04/09 00:33:56;;;;;;;12.43;7.60;;;13.50;99.90;;;;;;5483660;26;20234;-79
2024/04/09 00:36:24;;;;;;;12.07;7.63;;;13.60;99.90;;;;;;5463990;26;20332;-79
2024/04/09 00:38:54;;;;;;;9.13;7.50;;;13.60;99.90;;;;;;5475226;26;20239;-78
2024/04/09 00:41:22;;;;;;;15.65;7.57;;;13.40;99.90;;;;;;5482938;26;20242;-78
2024/04/09 00:43:48;;;;;;;11.15;7.65;;;13.40;99.90;;;;;;5502888;26;20611;-79
2024/04/09 00:46:19;;;;;;;13.15;8.35;;;13.30;99.90;;;;;;5500830;26;20250;-78
2024/04/09 00:48:46;;;;;;;9.98;7.90;;;13.40;99.90;;;;;;5490728;26;20246;-79
2024/04/09 00:51:20;;;;;;;12.82;8.68;;;13.40;99.90;;;;;;5505821;26;21552;-79
2024/04/09 00:53:49;;;;;;;14.75;7.97;;;13.50;99.90;;;;;;5491546;25;20262;-78
2024/04/09 00:56:19;;;;;;;12.93;7.85;;;13.60;99.90;;;;;;5477764;26;20274;-79
2024/04/09 00:58:46;;;;;;;15.32;8.05;;;13.60;99.90;;;;;;5490888;26;20247;-79
2024/04/09 01:01:16;;;;;;;13.35;7.65;;;13.60;99.90;;;;;;5474326;26;20289;-79
2024/04/09 01:03:44;;;;;;;11.75;7.82;;;13.70;99.90;;;;;;5477413;26;20243;-79
2024/04/09 01:06:13;;;;;;;11.02;7.82;;;13.70;99.90;;;;;;5486127;26;20238;-79
2024/04/09 01:08:42;;;;;;;13.25;6.75;;;13.60;99.90;;;;;;5466687;26;20251;-78
2024/04/09 01:11:10;;;;;;;11.70;7.25;;;13.30;99.90;;;;;;5484034;26;20726;-79
2024/04/09 01:13:38;;;;;;;15.98;7.20;;;13.10;99.90;;;;;;5482644;26;20282;-79
2024/04/09 01:16:10;;;;;;;9.63;7.15;;;13.10;99.90;;;;;;5490299;26;20235;-78
2024/04/09 01:18:36;;;;;;;13.52;6.70;;;13.10;99.90;;;;;;5488376;26;20294;-78
2024/04/09 01:21:06;;;;;;;12.05;7.45;;;13.30;99.90;;;;;;5486910;26;20321;-79
2024/04/09 01:23:34;;;;;;;11.30;7.10;;;13.40;99.90;;;;;;5477809;26;20281;-79
2024/04/09 01:26:03;;;;;;;10.55;7.63;;;13.40;99.90;;;;;;5482694;26;20242;-79
2024/04/09 01:28:30;;;;;;;13.52;8.20;;;13.40;99.90;;;;;;5460415;26;20599;-79
2024/04/09 01:31:01;;;;;;;11.37;7.67;;;13.40;99.90;;;;;;5489033;26;20826;-78
2024/04/09 01:33:27;;;;;;;11.20;7.85;;;13.50;99.90;;;;;;5467566;26;20243;-79
2024/04/09 01:35:56;;;;;;;12.75;8.23;;;13.40;99.90;;;;;;5462443;26;20352;-79
2024/04/09 01:38:22;;;;;;;14.75;8.65;;;13.40;99.90;;;;;;5482171;26;20285;-79
2024/04/09 01:40:54;;;;;;;15.43;9.40;;;13.30;99.90;;;;;;5486562;26;20285;-79
2024/04/09 01:43:20;;;;;;;16.73;9.38;;;13.40;99.90;;;;;;5468836;26;20231;-79
2024/04/09 01:45:49;;;;;;;14.65;9.15;;;13.50;99.90;;;;;;5480326;26;20246;-79
2024/04/09 01:48:15;;;;;;;12.55;8.98;;;13.50;99.90;;;;;;5482568;26;21056;-78
2024/04/09 01:50:44;;;;;;;12.57;9.00;;;13.30;99.90;;;;;;5491430;26;20269;-78
2024/04/09 01:53:10;;;;;;;14.05;8.55;;;13.40;99.90;;;;;;5488572;26;20242;-79
2024/04/09 01:55:39;;;;;;;15.90;8.25;;;13.30;99.90;;;;;;5489685;26;20250;-79
2024/04/09 01:58:08;;;;;;;10.77;8.20;;;13.30;99.90;;;;;;5476890;26;20297;-78
2024/04/09 02:00:38;;;;;;;13.70;8.13;;;13.40;99.90;;;;;;5486860;26;20323;-78
2024/04/09 02:03:04;;;;;;;14.07;8.00;;;13.40;99.90;;;;;;5493102;26;20774;-79
2024/04/09 02:05:38;;;;;;;13.15;9.25;;;13.20;99.90;;;;;;5474353;26;20228;-79
2024/04/09 02:08:05;;;;;;;14.90;9.55;;;13.30;99.90;;;;;;5488606;26;20238;-79
2024/04/09 02:10:33;;;;;;;14.93;9.40;;;13.40;99.90;;;;;;5485094;26;20339;-78
2024/04/09 02:12:59;;;;;;;14.00;9.90;;;13.40;99.90;;;;;;5478618;26;20238;-79
2024/04/09 02:15:30;;;;;;;13.98;9.90;;;13.40;99.90;;;;;;5483257;26;20255;-78
2024/04/09 02:17:56;;;;;;;12.70;9.18;;;13.50;99.90;;;;;;5474872;26;20561;-79
2024/04/09 02:20:26;;;;;;;17.02;9.80;;;13.60;99.90;;;;;;5483707;26;20285;-79
2024/04/09 02:22:52;;;;;;;14.20;9.80;;;13.60;99.90;;;;;;5478219;26;20678;-79
2024/04/09 02:25:21;;;;;;;13.68;9.70;;;13.60;99.90;;;;;;5488275;25;20294;-79
2024/04/09 02:27:47;;;;;;;16.63;9.82;;;13.40;99.90;;;;;;5490440;26;20247;-78
2024/04/09 02:30:15;;;;;;;13.18;9.10;;;13.40;99.90;;;;;;5469265;26;20285;-78
2024/04/09 02:32:45;;;;;;;12.07;8.88;;;13.40;99.90;;;;;;5481991;26;20242;-79
2024/04/09 02:35:13;;;;;;;15.52;9.45;;;13.50;99.90;;;;;;5464821;26;20246;-79
2024/04/09 02:37:39;;;;;;;14.27;8.50;;;13.60;99.90;;;;;;5490549;26;20250;-79
2024/04/09 02:40:15;;;;;;;14.23;9.15;;;13.70;99.90;;;;;;5486500;26;20270;-79
2024/04/09 02:42:42;;;;;;;18.30;10.25;;;13.80;99.90;;;;;;5479129;26;20230;-79
2024/04/09 02:45:11;;;;;;;14.18;9.93;;;13.90;99.90;;;;;;5487967;26;20242;-79
2024/04/09 02:47:38;;;;;;;17.65;10.30;;;14.00;99.90;;;;;;5478977;26;20259;-78
2024/04/09 02:50:09;;;;;;;16.63;10.38;;;14.00;99.90;;;;;;5477430;26;20321;-79
2024/04/09 02:52:35;;;;;;;17.48;11.23;;;14.00;99.90;;;;;;5496014;26;20233;-79
2024/04/09 02:55:04;;;;;;;16.08;10.13;;;14.00;99.90;;;;;;5483385;26;20837;-78
2024/04/09 02:57:31;;;;;;;16.17;10.00;;;14.10;99.90;;;;;;5468914;26;20370;-78
2024/04/09 02:59:59;;;;;;;17.13;9.73;;;14.10;99.90;;;;;;5486125;26;20614;-78
2024/04/09 03:02:25;;;;;;;18.58;9.95;;;14.00;99.90;;;;;;5476932;26;20285;-79
2024/04/09 03:04:54;;;;;;;15.20;9.75;;;14.20;99.90;;;;;;5489966;26;20239;-78
2024/04/09 03:07:22;;;;;;;15.95;10.10;;;14.20;99.90;;;;;;5487007;26;20294;-81
2024/04/09 03:09:51;;;;;;;16.55;10.55;;;14.20;99.90;;;;;;5489052;26;20235;-78
2024/04/09 03:12:17;;;;;;;14.45;9.55;;;14.10;99.90;;;;;;5487708;26;20591;-78
2024/04/09 03:14:46;;;;;;;16.83;9.27;;;14.10;99.90;;;;;;5479497;26;20345;-78
2024/04/09 03:17:12;;;;;;;15.38;8.93;;;14.10;99.90;;;;;;5488812;26;20258;-78
2024/04/09 03:19:40;;;;;;;15.05;9.15;;;14.00;99.90;;;;;;5481299;26;20311;-79
2024/04/09 03:22:06;;;;;;;13.75;9.15;;;14.00;99.90;;;;;;5500608;26;20249;-79
2024/04/09 03:24:37;;;;;;;15.18;9.70;;;14.10;99.90;;;;;;5480352;26;20293;-79
2024/04/09 03:27:04;;;;;;;14.43;9.68;;;14.10;99.90;;;;;;5486984;26;20281;-79
2024/04/09 03:29:32;;;;;;;17.10;9.45;;;14.10;99.90;;;;;;5485140;26;20297;-79
2024/04/09 03:31:58;;;;;;;14.57;10.98;;;14.10;99.90;;;;;;5493066;25;20233;-79
2024/04/09 03:34:27;;;;;;;16.13;9.82;;;14.20;99.90;;;;;;5485010;26;20281;-79
2024/04/09 03:36:53;;;;;;;15.73;9.57;;;14.10;99.90;;;;;;5484401;26;21006;-79
2024/04/09 03:39:22;;;;;;;13.63;8.75;;;14.10;99.90;;;;;;5488111;25;20292;-79
2024/04/09 03:41:54;;;;;;;16.05;9.18;;;14.10;99.90;;;;;;5479393;26;20286;-79
2024/04/09 03:44:23;;;;;;;15.07;9.02;;;14.10;99.90;;;;;;5481859;26;20234;-78
2024/04/09 03:46:49;;;;;;;15.73;9.82;;;14.00;99.90;;;;;;5490439;26;20292;-78
2024/04/09 03:49:17;;;;;;;17.02;9.55;;;13.90;99.90;;;;;;5478494;26;20430;-78
2024/04/09 03:51:43;;;;;;;20.13;11.20;;;13.90;99.90;;;;;;5488391;26;20289;-78
2024/04/09 03:54:12;;;;;;;15.80;9.52;;;13.90;99.90;;;;;;5489794;26;20250;-79
2024/04/09 03:56:37;;;;;;;18.30;10.30;;;13.90;99.90;;;;;;5506532;26;20288;-79
2024/04/09 03:59:09;;;;;;;18.17;10.48;;;13.90;99.90;;;;;;5504744;26;20242;-79
2024/04/09 04:01:35;;;;;;;15.90;10.55;;;13.80;99.90;;;;;;5496584;26;20578;-79
2024/04/09 04:04:03;;;;;;;16.10;9.70;;;13.90;99.90;;;;;;5494417;25;20287;-79
2024/04/09 04:06:29;;;;;;;18.30;10.07;;;14.00;99.90;;;;;;5496784;26;20239;-79
2024/04/09 04:08:58;;;;;;;14.15;9.50;;;14.10;99.90;;;;;;5495633;25;20284;-79
2024/04/09 04:11:24;;;;;;;20.17;9.88;;;14.10;99.90;;;;;;5497688;26;20289;-79
2024/04/09 04:13:52;;;;;;;16.63;10.23;;;14.10;99.90;;;;;;5496783;25;20233;-79
2024/04/09 04:16:21;;;;;;;15.05;9.13;;;14.10;99.90;;;;;;5491459;26;20242;-79
2024/04/09 04:18:51;;;;;;;15.88;8.73;;;14.10;99.90;;;;;;5498319;25;20284;-79
2024/04/09 04:21:18;;;;;;;15.30;9.15;;;14.10;99.90;;;;;;5491774;26;20238;-78
2024/04/09 04:23:48;;;;;;;15.13;9.90;;;14.10;99.90;;;;;;5493496;26;20599;-79
2024/04/09 04:26:17;;;;;;;14.52;8.68;;;14.00;99.90;;;;;;5486259;26;20238;-79
2024/04/09 04:28:47;;;;;;;17.50;9.88;;;13.90;99.90;;;;;;5487827;26;20234;-78
2024/04/09 04:31:14;;;;;;;13.60;9.43;;;14.00;99.90;;;;;;5479301;26;20785;-78
2024/04/09 04:33:46;;;;;;;13.30;8.75;;;13.90;99.90;;;;;;5498408;25;20239;-78
2024/04/09 04:36:13;;;;;;;17.38;9.70;;;13.80;99.90;;;;;;5501367;25;20283;-79
2024/04/09 04:38:42;;;;;;;15.52;8.93;;;13.90;99.90;;;;;;5483284;25;20296;-78
2024/04/09 04:41:09;;;;;;;14.00;8.35;;;13.90;99.90;;;;;;5494677;26;20249;-79
2024/04/09 04:43:38;;;;;;;16.83;8.95;;;13.80;99.90;;;;;;5475794;26;20582;-78
2024/04/09 04:46:05;;;;;;;14.82;8.88;;;13.80;99.90;;;;;;5473243;26;20251;-78
2024/04/09 04:48:34;;;;;;;15.68;9.20;;;13.80;99.90;;;;;;5474770;26;20244;-79
2024/04/09 04:51:03;;;;;;;13.82;8.10;;;13.90;99.90;;;;;;5488631;26;20268;-79
2024/04/09 04:53:31;;;;;;;14.60;8.35;;;13.90;99.90;;;;;;5480575;26;20246;-79
2024/04/09 04:55:57;;;;;;;13.82;8.10;;;13.90;99.90;;;;;;5487473;26;20301;-79
2024/04/09 04:58:26;;;;;;;16.52;8.65;;;13.90;99.90;;;;;;5486725;26;20250;-79
2024/04/09 05:00:52;;;;;;;14.73;9.13;;;14.00;99.90;;;;;;5488563;26;20273;-79
2024/04/09 05:03:21;;;;;;;12.52;7.65;;;14.00;99.90;;;;;;5506415;26;20736;-79
2024/04/09 05:05:47;;;;;;;13.93;8.32;;;14.00;99.90;;;;;;5507823;25;20245;-79
2024/04/09 05:08:18;;;;;;;15.65;7.90;;;13.90;99.90;;;;;;5501348;26;20276;-78
2024/04/09 05:10:44;;;;;;;11.57;6.82;;;14.00;99.90;;;;;;5495143;26;20233;-78
2024/04/09 05:13:13;;;;;;;12.95;7.53;;;14.00;99.90;;;;;;5499623;25;20276;-79
2024/04/09 05:15:39;;;;;;;14.27;7.20;;;14.00;99.90;;;;;;5495789;26;20776;-79
2024/04/09 05:18:09;;;;;;;11.65;7.43;;;14.10;99.90;;;;;;5492170;26;20302;-79
2024/04/09 05:20:39;;;;;;;14.25;6.65;;;14.10;99.90;;;;;;5497357;26;20234;-79
2024/04/09 05:23:05;;;;;;;12.85;6.47;;;14.20;99.90;;;;;;5494211;26;20337;-79
2024/04/09 05:25:36;;;;;;;15.00;6.90;;;14.20;99.90;;;;;;5483795;26;20251;-79
2024/04/09 05:28:02;;;;;;;14.57;6.53;;;14.20;99.90;;;;;;5485956;26;20268;-79
2024/04/09 05:30:31;;;;;;;15.57;6.47;;;14.30;99.90;;;;;;5485431;26;20238;-79
2024/04/09 05:32:57;;;;;;;14.70;6.90;;;14.50;99.90;;;;;;5493143;26;20258;-79
2024/04/09 05:35:26;;;;;;;13.02;6.45;;;14.50;99.90;;;;;;5492471;26;20370;-79
2024/04/09 05:37:52;;;;;;;12.98;6.32;;;14.60;99.90;;;;;;5505300;26;20246;-79
2024/04/09 05:40:21;;;;;;;15.02;6.10;;;14.70;99.90;;;;;;5501627;25;20281;-79
2024/04/09 05:42:49;;;;;;;17.63;6.30;;;14.90;99.90;;;;;;5501265;26;20238;-79
2024/04/09 05:45:20;;;;;;;17.10;6.57;;;15.00;99.90;;;;;;5489632;26;20245;-79
2024/04/09 05:47:46;;;;;;;15.70;5.85;;;15.00;99.90;;;;;;5486110;26;20286;-79
2024/04/09 05:50:15;;;;;;;17.98;5.75;;;15.00;99.90;;;;;;5497497;26;20577;-79
2024/04/09 05:52:41;;;;;;;15.85;5.80;;;15.20;99.90;;;;;;5491328;25;20278;-79
2024/04/09 05:55:12;;;;;;;15.75;5.15;;;15.40;99.90;;;;;;5493227;25;20303;-79
2024/04/09 05:57:38;;;;;;;16.88;5.32;;;15.40;99.90;;;;;;5486177;26;20251;-79
2024/04/09 06:00:14;;;;;;;22.98;5.35;;;15.50;99.90;;;;;;5484001;26;20603;-79
2024/04/09 06:02:44;;;;;;;16.15;4.55;;;15.60;1.00;;;;;;5485363;26;20276;-78
2024/04/09 06:05:14;;;;;;;16.10;5.43;;;15.60;1.00;;;;;;5488766;26;20290;-79
2024/04/09 06:07:40;;;;;;;20.52;5.43;;;15.50;1.00;;;;;;5493360;26;20249;-79
2024/04/09 06:10:10;;;;;;;14.80;4.85;;;15.50;1.00;;;;;;5502055;26;20246;-79
2024/04/09 06:12:38;;;;;;;13.00;4.18;;;15.60;1.00;;;;;;5500515;26;20249;-79
2024/04/09 06:15:07;;;;;;;19.02;4.80;;;15.60;1.00;;;;;;5496413;26;20242;-79
2024/04/09 06:17:36;;;;;;;17.83;5.28;;;15.60;1.00;;;;;;5494562;26;20285;-79
2024/04/09 06:20:05;;;;;;;16.45;4.30;;;15.70;1.00;;;;;;5494855;26;20250;-79
2024/04/09 06:22:31;;;;;;;15.40;4.72;;;15.70;99.90;;;;;;5487068;26;20277;-79
2024/04/09 06:25:00;;;;;;;21.98;5.03;;;15.70;99.90;;;;;;5490187;25;20234;-79
2024/04/09 06:27:26;;;;;;;17.42;4.20;;;15.80;1.00;;;;;;5485386;26;20297;-79
2024/04/09 06:29:54;;;;;;;23.05;4.90;;;15.90;99.90;;;;;;5487905;26;20238;-79
2024/04/09 06:32:20;;;;;;;16.77;4.43;;;16.00;1.00;;;;;;5508813;26;20233;-79
2024/04/09 06:34:52;;;;;;;15.40;4.50;;;16.10;1.00;;;;;;5499487;26;20234;-79
2024/04/09 06:37:18;;;;;;;19.58;4.45;;;16.00;31.00;;;;;;5500424;26;20583;-79
2024/04/09 06:39:46;;;;;;;21.73;4.88;;;16.00;99.90;;;;;;5504138;26;20246;-79
2024/04/09 06:42:12;;;;;;;16.83;4.78;;;16.10;53.60;;;;;;5491714;25;20747;-78
2024/04/09 06:44:41;;;;;;;24.25;4.20;;;16.20;1.00;;;;;;5490564;26;20570;-79
2024/04/09 06:47:07;;;;;;;21.90;5.47;;;16.40;1.00;;;;;;5504670;25;20247;-79
2024/04/09 06:49:36;;;;;;;17.85;4.60;;;16.60;1.00;;;;;;5491855;25;20258;-79
2024/04/09 06:52:05;;;;;;;23.42;4.57;;;16.70;99.90;;;;;;5496514;26;20301;-79
2024/04/09 06:54:33;;;;;;;22.92;4.72;;;16.80;39.40;;;;;;5491945;25;20268;-79
2024/04/09 06:56:59;;;;;;;16.17;4.43;;;16.90;1.00;;;;;;5495395;26;20242;-79
2024/04/09 06:59:28;;;;;;;19.52;4.95;;;16.90;1.00;;;;;;5490046;26;20229;-79
2024/04/09 07:01:54;;;;;;;19.27;4.25;;;16.90;1.00;;;;;;5488273;26;20247;-79
2024/04/09 07:04:22;;;;;;;16.60;4.13;;;16.90;1.00;;;;;;5487128;26;20273;-79
2024/04/09 07:06:49;;;;;;;14.18;3.95;;;17.00;1.00;;;;;;5489343;26;20273;-79
2024/04/09 07:09:22;;;;;;;20.38;5.15;;;16.90;1.00;;;;;;5489719;26;20239;-79
2024/04/09 07:11:48;;;;;;;12.75;3.63;;;16.90;1.00;;;;;;5488215;26;20235;-79
2024/04/09 07:14:17;;;;;;;17.60;4.10;;;16.90;1.00;;;;;;5492883;26;20343;-79
2024/04/09 07:16:43;;;;;;;24.30;5.18;;;16.90;1.00;;;;;;5499164;26;20239;-79
2024/04/09 07:19:12;;;;;;;18.33;4.63;;;16.90;1.00;;;;;;5496665;25;20239;-79
2024/04/09 07:21:38;;;;;;;17.83;4.70;;;17.00;1.00;;;;;;5492042;26;20293;-79
2024/04/09 07:24:08;;;;;;;21.38;4.97;;;17.10;1.00;;;;;;5492367;26;20246;-79
2024/04/09 07:26:37;;;;;;;15.60;4.63;;;17.10;1.00;;;;;;5489459;26;20297;-79
2024/04/09 07:29:06;;;;;;;17.92;4.35;;;17.20;1.00;;;;;;5492270;26;20242;-79
2024/04/09 07:31:33;;;;;;;17.52;4.57;;;17.30;1.00;;;;;;5499759;26;20253;-79
2024/04/09 07:34:02;;;;;;;16.77;4.40;;;17.30;1.00;;;;;;5504833;26;20759;-79
2024/04/09 07:36:28;;;;;;;20.83;5.32;;;17.40;1.00;;;;;;5488510;25;20534;-79
2024/04/09 07:38:58;;;;;;;18.35;4.40;;;17.60;99.90;;;;;;5504289;25;20244;-79
2024/04/09 07:41:25;;;;;;;18.75;4.63;;;17.60;99.90;;;;;;5503325;25;20272;-79
2024/04/09 07:43:56;;;;;;;17.58;4.00;;;17.80;99.90;;;;;;5494466;26;20246;-79
2024/04/09 07:46:22;;;;;;;17.88;4.63;;;17.80;99.90;;;;;;5503497;25;20261;-79
2024/04/09 07:48:51;;;;;;;23.63;5.03;;;17.90;99.90;;;;;;5502380;26;20280;-79
2024/04/09 07:51:17;;;;;;;18.90;4.82;;;18.00;99.90;;;;;;5500287;26;20275;-79
2024/04/09 07:53:45;;;;;;;15.88;3.97;;;18.10;99.90;;;;;;5495400;25;20270;-79
2024/04/09 07:56:12;;;;;;;16.88;3.85;;;18.20;99.90;;;;;;5501471;26;20297;-79
2024/04/09 07:58:41;;;;;;;19.23;3.97;;;18.30;99.90;;;;;;5490708;25;20809;-79
2024/04/09 08:01:10;;;;;;;15.75;3.35;;;18.30;99.90;;;;;;5496428;26;20281;-79
2024/04/09 08:03:38;;;;;;;15.38;3.78;;;18.40;99.90;;;;;;5488357;25;20238;-79
2024/04/09 08:06:06;;;;;;;13.35;3.50;;;18.40;99.90;;;;;;5489929;25;20634;-79
2024/04/09 08:08:34;;;;;;;14.88;3.67;;;18.30;99.90;;;;;;5492824;26;20246;-79
2024/04/09 08:11:00;;;;;;;8.57;3.17;;;18.20;99.90;;;;;;5492090;26;20270;-79
2024/04/09 08:13:29;;;;;;;14.13;3.20;;;18.20;99.90;;;;;;5490734;26;20238;-79
2024/04/09 08:15:56;;;;;;;11.25;2.75;;;18.10;99.90;;;;;;5490781;26;20246;-79
2024/04/09 08:18:27;;;;;;;10.68;2.67;;;18.00;99.90;;;;;;5490315;26;20346;-79
2024/04/09 08:20:53;;;;;;;12.93;2.80;;;18.00;99.90;;;;;;5491892;26;20774;-79
2024/04/09 08:23:22;;;;;;;11.18;3.00;;;18.00;99.90;;;;;;5495369;26;20280;-79
2024/04/09 08:25:49;;;;;;;10.45;3.15;;;18.00;99.90;;;;;;5493300;26;20234;-79
2024/04/09 08:28:18;;;;;;;10.10;2.75;;;18.10;51.80;;;;;;5490718;26;20235;-79
2024/04/09 08:30:44;;;;;;;11.27;2.90;;;18.10;28.50;;;;;;5489595;26;20230;-79
2024/04/09 08:33:13;;;;;;;9.88;2.65;;;18.10;4.90;;;;;;5510039;26;20234;-79
2024/04/09 08:35:45;;;;;;;12.68;2.45;;;18.10;1.00;;;;;;5496711;25;20740;-79
2024/04/09 08:38:13;;;;;;;10.00;2.80;;;18.10;35.00;;;;;;5496170;26;20234;-79
2024/04/09 08:40:39;;;;;;;10.98;2.75;;;18.00;87.50;;;;;;5511833;26;20241;-79
2024/04/09 08:43:09;;;;;;;9.88;2.63;;;17.90;99.90;;;;;;5515863;26;20286;-79
2024/04/09 08:45:36;;;;;;;7.93;2.95;;;17.80;99.90;;;;;;5512983;25;20257;-79
2024/04/09 08:48:09;;;;;;;9.68;2.42;;;17.80;99.90;;;;;;5505366;25;20246;-79
2024/04/09 08:50:37;;;;;;;7.38;2.60;;;17.80;99.90;;;;;;5510180;25;20641;-79
2024/04/09 08:53:09;;;;;;;6.57;2.17;;;17.80;48.90;;;;;;5486995;26;20292;-78
2024/04/09 08:55:36;;;;;;;9.40;2.50;;;17.80;20.40;;;;;;5496052;25;20273;-78
2024/04/09 08:58:05;;;;;;;11.88;3.38;;;17.80;15.50;;;;;;5489885;26;20234;-79
2024/04/09 09:00:32;;;;;;;9.70;2.85;;;17.90;26.00;;;;;;5494794;26;20249;-79
2024/04/09 09:03:00;;;;;;;7.65;2.67;;;18.10;1.00;;;;;;5498852;26;20316;-78
2024/04/09 09:05:26;;;;;;;4.78;1.95;;;18.30;1.00;;;;;;5501918;26;20623;-79
2024/04/09 09:08:01;;;;;;;6.70;2.40;;;18.60;1.00;;;;;;5496359;26;20276;-79
2024/04/09 09:10:29;;;;;;;6.15;2.20;;;18.80;1.00;;;;;;5493020;26;20238;-79
2024/04/09 09:13:02;;;;;;;6.45;2.80;;;18.90;1.00;;;;;;5490899;26;20852;-79
2024/04/09 09:15:28;;;;;;;7.88;2.50;;;19.10;1.00;;;;;;5494729;26;20288;-79
2024/04/09 09:17:57;;;;;;;9.45;2.78;;;19.30;1.00;;;;;;5493194;26;20374;-79
2024/04/09 09:20:23;;;;;;;10.27;3.08;;;19.30;1.00;;;;;;5490861;26;20281;-79
2024/04/09 09:22:54;;;;;;;9.13;2.83;;;19.20;1.00;;;;;;5491061;26;20301;-79
2024/04/09 09:25:22;;;;;;;7.75;3.08;;;19.10;1.00;;;;;;5492088;26;20367;-79
2024/04/09 09:28:07;;;;;;;9.02;4.80;;;19.50;1.00;;;;;;5492589;26;20251;-79
2024/04/09 09:30:40;;;;;;;8.40;5.35;;;19.60;1.00;;;;;;5492380;26;20281;-79
2024/04/09 09:33:14;;;;;;;9.75;6.30;;;19.70;1.00;;;;;;5511220;25;20754;-78
2024/04/09 09:35:46;;;;;;;13.70;5.82;;;19.60;1.00;;;;;;5506498;25;20273;-79
2024/04/09 09:38:15;;;;;;;8.45;6.00;;;19.50;1.00;;;;;;5501746;26;20238;-78
2024/04/09 09:40:44;;;;;;;8.00;5.32;;;19.40;1.00;;;;;;5514761;25;20276;-79
2024/04/09 09:43:18;;;;;;;9.13;6.10;;;19.10;1.00;;;;;;5517558;25;20233;-79
2024/04/09 09:45:44;;;;;;;10.60;5.68;;;18.90;1.00;;;;;;5515500;25;20284;-79
2024/04/09 09:48:14;;;;;;;11.95;5.68;;;19.00;1.00;;;;;;5496638;26;20234;-79
2024/04/09 09:50:42;;;;;;;9.05;5.70;;;19.10;1.00;;;;;;5509224;25;20283;-79
2024/04/09 09:53:11;;;;;;;10.35;6.20;;;19.00;1.00;;;;;;5511134;26;20250;-79
2024/04/09 09:55:39;;;;;;;14.57;6.97;;;19.10;1.00;;;;;;5500804;25;20238;-79
2024/04/09 09:58:11;;;;;;;8.38;5.70;;;19.00;1.00;;;;;;5500091;26;20302;-79
2024/04/09 10:00:41;;;;;;;12.68;6.60;;;19.10;1.00;;;;;;5504034;25;20242;-79
2024/04/09 10:03:10;;;;;;;8.75;6.22;;;19.20;1.00;;;;;;5501458;26;20356;-79
2024/04/09 10:05:39;;;;;;;11.55;6.90;;;19.30;1.00;;;;;;5495657;26;20663;-79
2024/04/09 10:08:17;;;;;;;10.32;6.32;;;19.20;1.00;;;;;;5496396;26;20284;-79
2024/04/09 10:10:43;;;;;;;10.30;6.68;;;19.30;1.00;;;;;;5491912;26;20658;-79
2024/04/09 10:13:12;;;;;;;14.00;6.55;;;19.30;1.00;;;;;;5498614;26;20280;-79
2024/04/09 10:15:48;;;;;;;10.45;6.22;;;19.20;1.00;;;;;;5495514;26;20286;-79
2024/04/09 10:18:30;;;;;;;13.20;6.97;;;19.20;1.00;;;;;;5496209;26;20362;-79
2024/04/09 10:20:56;;;;;;;10.70;6.55;;;19.30;1.00;;;;;;5490904;26;20668;-79
2024/04/09 10:23:25;;;;;;;12.00;6.60;;;19.50;1.00;;;;;;5493614;26;20293;-79
2024/04/09 10:25:56;;;;;;;10.50;6.57;;;19.60;1.00;;;;;;5491795;26;20716;-79
2024/04/09 10:28:32;;;;;;;12.27;6.15;;;19.50;1.00;;;;;;5492257;26;20242;-79
2024/04/09 10:31:03;;;;;;;10.13;6.22;;;19.40;1.00;;;;;;5488953;26;20242;-79
2024/04/09 10:33:34;;;;;;;11.00;5.90;;;19.40;1.00;;;;;;5517871;26;20241;-79
2024/04/09 10:36:03;;;;;;;11.45;6.68;;;19.40;1.00;;;;;;5519660;26;20241;-79
2024/04/09 10:38:35;;;;;;;9.45;6.10;;;19.50;1.00;;;;;;5517545;25;20241;-78
2024/04/09 10:41:03;;;;;;;14.52;5.93;;;19.60;1.00;;;;;;5519473;26;20238;-79
2024/04/09 10:43:31;;;;;;;10.35;5.40;;;19.80;1.00;;;;;;5519809;25;20233;-79
2024/04/09 10:45:57;;;;;;;6.72;4.70;;;19.70;1.00;;;;;;5514249;25;20246;-79
2024/04/09 10:48:29;;;;;;;9.65;5.72;;;19.70;1.00;;;;;;5518346;25;20283;-79
2024/04/09 10:50:55;;;;;;;8.32;5.07;;;19.80;1.00;;;;;;5508465;25;20283;-79
2024/04/09 10:53:24;;;;;;;9.23;4.63;;;20.00;1.00;;;;;;5511224;25;20247;-79
2024/04/09 10:55:59;;;;;;;11.63;5.43;;;20.20;1.00;;;;;;5499226;26;20291;-79
2024/04/09 10:58:28;;;;;;;8.57;4.85;;;20.20;1.00;;;;;;5513233;26;20825;-79
2024/04/09 11:00:55;;;;;;;7.30;4.95;;;20.10;1.00;;;;;;5498731;25;20574;-79
2024/04/09 11:03:25;;;;;;;6.53;4.28;;;20.00;1.00;;;;;;5494910;26;20280;-79
2024/04/09 11:05:53;;;;;;;8.10;4.13;;;19.80;1.00;;;;;;5495134;25;20257;-79
2024/04/09 11:08:33;;;;;;;6.95;3.65;;;19.50;1.00;;;;;;5499541;26;20299;-79
2024/04/09 11:11:00;;;;;;;4.30;3.90;;;19.40;1.00;;;;;;5494568;26;20295;-79
2024/04/09 11:13:29;;;;;;;5.00;3.70;;;19.20;1.00;;;;;;5497964;26;20242;-79
2024/04/09 11:15:56;;;;;;;6.30;3.72;;;18.90;1.00;;;;;;5486142;25;20289;-79
2024/04/09 11:18:25;;;;;;;4.40;3.40;;;18.80;1.00;;;;;;5481904;26;20239;-79
2024/04/09 11:20:55;;;;;;;6.47;4.00;;;18.80;1.00;;;;;;5488499;26;20279;-79
2024/04/09 11:23:24;;;;;;;6.10;4.40;;;18.60;1.00;;;;;;5477070;26;20252;-79
2024/04/09 11:25:52;;;;;;;7.47;4.53;;;18.40;1.00;;;;;;5482156;26;20313;-78
2024/04/09 11:28:21;;;;;;;4.68;2.78;;;18.20;1.00;;;;;;5491895;26;20284;-80
2024/04/09 11:30:50;;;;;;;5.72;2.78;;;17.20;48.70;;;;;;5474539;26;20285;-79
2024/04/09 11:33:20;;;;;;;4.20;2.88;;;16.60;1.00;;;;;;5480687;26;20673;-79
2024/04/09 11:35:54;;;;;;;3.08;2.83;;;16.20;27.80;;;;;;5488515;26;20238;-79
2024/04/09 11:38:24;;;;;;;3.53;2.90;;;16.10;99.90;;;;;;5498457;26;20242;-78
2024/04/09 11:40:50;;;;;;;4.32;3.17;;;16.00;99.90;;;;;;5509276;26;20245;-79
2024/04/09 11:43:20;;;;;;;5.60;3.47;;;15.70;99.90;;;;;;5503949;25;20281;-79
2024/04/09 11:45:46;;;;;;;3.65;3.30;;;15.50;1.00;;;;;;5502739;26;20245;-78
2024/04/09 11:48:14;;;;;;;4.07;3.20;;;15.30;99.90;;;;;;5506003;26;20298;-78
2024/04/09 11:50:41;;;;;;;3.80;2.70;;;15.30;1.00;;;;;;5498622;26;20242;-78
2024/04/09 11:53:13;;;;;;;2.75;2.55;;;15.30;1.00;;;;;;5504759;26;20242;-78
2024/04/09 11:55:39;;;;;;;4.32;3.13;;;15.20;99.90;;;;;;5491754;26;20233;-78
2024/04/09 11:58:08;;;;;;;3.10;2.80;;;15.20;99.90;;;;;;5477434;26;20793;-78
2024/04/09 12:00:34;;;;;;;4.38;2.72;;;15.30;72.70;;;;;;5490216;26;20250;-78
2024/04/09 12:03:03;;;;;;;3.30;2.40;;;15.30;1.00;;;;;;5491080;26;20239;-78
2024/04/09 12:05:29;;;;;;;3.40;2.60;;;15.20;1.00;;;;;;5486521;26;20280;-79
2024/04/09 12:07:58;;;;;;;3.42;3.00;;;15.20;1.00;;;;;;5484558;26;20239;-78
2024/04/09 12:10:26;;;;;;;3.80;2.90;;;15.10;1.00;;;;;;5490124;26;20238;-79
2024/04/09 12:12:55;;;;;;;4.40;2.25;;;15.00;1.00;;;;;;5490209;26;20826;-78
2024/04/09 12:15:21;;;;;;;2.35;1.50;;;14.90;1.00;;;;;;5482079;26;20619;-78
2024/04/09 12:17:49;;;;;;;1.80;1.70;;;14.80;1.00;;;;;;5491528;25;20288;-78
2024/04/09 12:20:16;;;;;;;1.95;1.85;;;14.80;1.00;;;;;;5476011;26;20231;-78
2024/04/09 12:22:44;;;;;;;1.50;1.40;;;14.80;99.90;;;;;;5500994;25;20273;-79
2024/04/09 12:25:10;;;;;;;1.35;1.25;;;14.80;99.90;;;;;;5460109;26;20282;-78
2024/04/09 12:27:41;;;;;;;1.73;1.40;;;14.90;99.90;;;;;;5493825;26;20242;-78
2024/04/09 12:30:08;;;;;;;1.70;1.30;;;14.80;99.90;;;;;;5475622;26;20290;-78
2024/04/09 12:32:37;;;;;;;1.60;1.33;;;14.70;99.90;;;;;;5486710;26;20289;-79
2024/04/09 12:35:04;;;;;;;2.40;1.40;;;14.70;99.90;;;;;;5490559;26;20776;-78
2024/04/09 12:37:32;;;;;;;2.10;1.30;;;14.60;99.90;;;;;;5490496;26;20297;-78
2024/04/09 12:39:58;;;;;;;2.50;1.42;;;14.50;99.90;;;;;;5491152;25;20685;-78
2024/04/09 12:42:27;;;;;;;1.80;1.40;;;14.50;99.90;;;;;;5498615;25;20242;-78
2024/04/09 12:44:56;;;;;;;4.87;1.80;;;14.40;93.50;;;;;;5486178;26;20277;-78
2024/04/09 12:47:24;;;;;;;1.73;1.40;;;14.30;99.90;;;;;;5485766;26;20710;-79
2024/04/09 12:49:50;;;;;;;2.47;1.90;;;14.30;99.90;;;;;;5473607;26;20674;-78